Time;durP1;ratioP1;P1;durP2;ratioP2;P2;SDS_P1;SDS_P2;PMS_P1;PMS_P2;Temp;Humidity;BMP_temperature;BMP_pressure;BME280_temperature;BME280_humidity;BME280_pressure;Samples;Min_cycle;Max_cycle;Signal;HPM_P1;HPM_P2
2023/08/03 00:03:22;;;;;;;4.03;2.13;;;19.60;97.30;;;18.50;86.01;99095.25;10393293;27;96634;-83
2023/08/03 00:08:26;;;;;;;5.80;2.20;;;19.60;97.70;;;18.44;86.85;99091.69;10443065;27;98780;-84
2023/08/03 00:13:29;;;;;;;3.15;2.10;;;19.50;98.10;;;18.32;87.93;99097.16;10435871;27;98689;-83
2023/08/03 00:18:33;;;;;;;2.75;1.65;;;19.40;98.50;;;18.32;87.90;99099.03;10431687;27;99523;-83
2023/08/03 00:23:37;;;;;;;4.18;2.25;;;19.40;98.80;;;18.30;87.88;99090.41;10426061;27;97382;-84
2023/08/03 00:28:42;;;;;;;4.22;2.25;;;19.40;99.10;;;18.31;88.39;99094.72;10423618;27;96615;-83
2023/08/03 00:33:46;;;;;;;3.17;1.77;;;19.30;99.40;;;18.26;88.58;99084.69;10410824;27;96622;-84
2023/08/03 00:38:49;;;;;;;3.95;2.20;;;19.30;99.60;;;18.25;89.17;99091.13;10436760;27;97291;-84
2023/08/03 00:43:53;;;;;;;4.18;2.50;;;19.30;99.90;;;18.19;89.47;99089.41;10395703;27;97615;-83
2023/08/03 00:48:57;;;;;;;3.22;2.00;;;19.20;99.90;;;18.15;89.68;99083.69;10406215;27;98117;-82
2023/08/03 00:54:06;;;;;;;4.35;1.98;;;19.10;99.90;;;18.09;89.39;99089.22;10437298;27;96530;-82
2023/08/03 00:59:11;;;;;;;2.65;1.90;;;19.10;99.90;;;18.09;89.82;99091.91;10408394;27;96741;-81
2023/08/03 01:04:15;;;;;;;4.07;2.63;;;19.10;99.90;;;18.10;89.97;99098.94;10424378;27;97227;-82
2023/08/03 01:09:19;;;;;;;4.40;2.90;;;19.10;99.90;;;18.04;90.19;99091.84;10412122;28;97069;-82
2023/08/03 01:14:23;;;;;;;3.95;2.10;;;19.10;99.90;;;17.95;90.39;99082.56;10406733;27;96641;-82
2023/08/03 01:19:26;;;;;;;3.70;2.58;;;19.00;99.90;;;17.91;90.96;99095.66;10428456;27;96591;-82
2023/08/03 01:24:31;;;;;;;4.88;2.50;;;18.90;99.90;;;17.87;91.33;99089.13;10429894;27;96506;-81
2023/08/03 01:29:34;;;;;;;3.40;2.17;;;18.80;99.90;;;17.84;92.06;99090.44;10408690;27;96647;-82
2023/08/03 01:34:38;;;;;;;3.13;1.98;;;18.80;99.90;;;17.82;91.99;99084.50;10425599;27;96551;-81
2023/08/03 01:39:45;;;;;;;4.45;2.22;;;18.80;99.90;;;17.80;92.59;99078.53;10414086;27;96762;-82
2023/08/03 01:44:49;;;;;;;4.82;2.60;;;18.80;99.90;;;17.75;92.64;99081.16;10396875;27;96594;-82
2023/08/03 01:49:53;;;;;;;4.38;2.42;;;18.80;99.90;;;17.67;93.38;99079.63;10423865;27;98748;-82
2023/08/03 01:54:56;;;;;;;2.65;1.73;;;18.70;99.90;;;17.59;94.33;99079.19;10414748;27;96607;-82
2023/08/03 02:00:00;;;;;;;6.90;2.65;;;18.60;99.90;;;17.55;95.46;99064.59;10389334;27;96592;-82
2023/08/03 02:05:06;;;;;;;4.68;2.03;;;18.50;99.90;;;17.49;95.50;99066.38;10402873;27;96662;-82
2023/08/03 02:10:11;;;;;;;3.15;2.30;;;18.50;99.90;;;17.45;95.78;99056.34;10418493;28;96467;-82
2023/08/03 02:15:16;;;;;;;4.35;2.75;;;18.50;99.90;;;17.43;96.70;99061.16;10396360;27;97374;-82
2023/08/03 02:20:22;;;;;;;3.88;2.50;;;18.50;99.90;;;17.39;96.85;99066.19;10422750;27;96653;-82
2023/08/03 02:25:26;;;;;;;3.78;2.30;;;18.50;99.90;;;17.38;97.76;99064.56;10436495;27;96655;-82
2023/08/03 02:30:30;;;;;;;5.38;2.45;;;18.40;99.90;;;17.31;98.11;99080.81;10438586;27;96592;-82
2023/08/03 02:35:37;;;;;;;3.65;2.47;;;18.40;99.90;;;17.26;98.54;99083.41;10441249;27;96853;-82
2023/08/03 02:40:40;;;;;;;3.13;2.10;;;18.30;99.90;;;17.28;99.34;99081.31;10394603;27;96719;-82
2023/08/03 02:45:44;;;;;;;4.55;2.35;;;18.30;99.90;;;17.27;99.39;99073.47;10401121;27;97483;-81
2023/08/03 02:50:48;;;;;;;4.32;2.40;;;18.30;99.90;;;17.25;99.93;99075.59;10426306;27;96519;-81
2023/08/03 02:55:52;;;;;;;4.20;2.80;;;18.30;99.90;;;17.22;99.82;99076.88;10401083;28;97595;-81
2023/08/03 03:00:56;;;;;;;3.88;2.85;;;18.30;99.90;;;17.17;100.00;99082.16;10437210;27;97454;-81
2023/08/03 03:05:59;;;;;;;3.70;2.25;;;18.20;99.90;;;17.17;100.00;99097.44;10417175;27;98606;-81
2023/08/03 03:11:03;;;;;;;2.58;2.15;;;18.20;99.90;;;17.13;100.00;99094.41;10441079;27;96712;-81
2023/08/03 03:16:06;;;;;;;5.15;2.38;;;18.20;99.90;;;17.12;100.00;99093.59;10424133;27;98610;-82
2023/08/03 03:21:10;;;;;;;2.75;2.05;;;18.20;99.90;;;17.13;100.00;99095.22;10409707;28;96656;-82
2023/08/03 03:26:14;;;;;;;4.05;2.47;;;18.30;99.90;;;17.16;100.00;99093.94;10414232;27;97647;-82
2023/08/03 03:31:17;;;;;;;3.58;2.47;;;18.20;99.90;;;17.17;100.00;99100.13;10427203;27;96604;-81
2023/08/03 03:36:24;;;;;;;6.47;2.22;;;18.30;99.90;;;17.17;100.00;99084.84;10427788;27;96601;-81
2023/08/03 03:41:27;;;;;;;8.82;3.00;;;18.20;99.90;;;17.12;100.00;99096.28;10425897;27;96801;-81
2023/08/03 03:46:31;;;;;;;5.00;3.47;;;18.20;99.90;;;17.13;100.00;99097.09;10391632;27;96857;-82
2023/08/03 03:51:34;;;;;;;5.68;2.47;;;18.20;99.90;;;17.13;100.00;99091.72;10420452;27;96589;-80
2023/08/03 03:56:38;;;;;;;4.28;2.03;;;18.20;99.90;;;17.17;100.00;99092.06;10410297;27;98421;-80
2023/08/03 04:01:41;;;;;;;2.55;1.92;;;18.20;99.90;;;17.20;100.00;99097.78;10423110;27;97422;-80
2023/08/03 04:06:45;;;;;;;4.18;2.15;;;18.30;99.90;;;17.25;100.00;99094.38;10433855;27;97394;-80
2023/08/03 04:11:49;;;;;;;5.53;2.60;;;18.40;99.90;;;17.33;100.00;99092.16;10421741;27;98581;-80
2023/08/03 04:16:52;;;;;;;3.50;2.40;;;18.40;99.90;;;17.44;100.00;99090.47;10425161;27;98484;-80
2023/08/03 04:21:56;;;;;;;3.58;2.10;;;18.50;99.90;;;17.56;100.00;99088.53;10411915;27;96750;-81
2023/08/03 04:26:59;;;;;;;3.47;2.10;;;18.70;99.90;;;17.64;100.00;99084.66;10412477;28;96794;-81
2023/08/03 04:32:03;;;;;;;5.47;2.30;;;18.70;99.90;;;17.71;100.00;99079.97;10412535;27;98700;-81
2023/08/03 04:37:06;;;;;;;4.20;2.40;;;18.80;99.90;;;17.81;100.00;99087.41;10413772;27;97586;-81
2023/08/03 04:42:10;;;;;;;3.50;2.00;;;18.90;99.90;;;17.92;100.00;99081.16;10456149;27;96637;-81
2023/08/03 04:47:13;;;;;;;3.60;2.40;;;19.00;99.90;;;18.04;100.00;99076.50;10401275;27;96719;-81
2023/08/03 04:52:17;;;;;;;3.50;2.08;;;19.10;99.90;;;18.17;100.00;99088.81;10392039;27;97727;-80
2023/08/03 04:57:20;;;;;;;3.13;2.03;;;19.20;99.90;;;18.29;100.00;99097.66;10429912;27;98481;-81
2023/08/03 05:02:24;;;;;;;4.43;2.13;;;19.30;99.90;;;18.41;100.00;99090.31;10425588;27;96818;-80
2023/08/03 05:07:27;;;;;;;3.58;2.15;;;19.40;99.90;;;18.58;100.00;99084.88;10424080;27;98457;-81
2023/08/03 05:12:31;;;;;;;3.55;1.80;;;19.60;99.90;;;18.76;100.00;99081.13;10411431;27;96801;-80
2023/08/03 05:17:35;;;;;;;3.63;2.25;;;19.80;99.90;;;18.93;99.56;99073.00;10402676;27;96893;-81
2023/08/03 05:22:39;;;;;;;4.28;2.60;;;19.90;99.90;;;19.10;97.01;99073.78;10414684;27;97475;-80
2023/08/03 05:27:42;;;;;;;5.53;2.50;;;20.10;99.90;;;19.31;95.51;99068.63;10434477;27;96642;-80
2023/08/03 05:32:46;;;;;;;4.03;2.50;;;20.30;99.90;;;19.43;93.83;99067.44;10427491;27;98451;-81
2023/08/03 05:37:53;;;;;;;5.60;2.28;;;20.50;99.90;;;19.56;92.49;99062.72;10416921;27;97342;-80
2023/08/03 05:42:56;;;;;;;4.65;2.03;;;20.60;99.90;;;19.71;92.24;99073.66;10424154;27;96655;-80
2023/08/03 05:48:01;;;;;;;4.03;2.60;;;20.70;99.90;;;19.87;91.94;99074.63;10385115;28;96683;-80
2023/08/03 05:53:06;;;;;;;3.63;2.20;;;20.90;99.90;;;20.03;90.64;99074.53;10363843;28;97600;-81
2023/08/03 05:58:16;;;;;;;4.97;2.33;;;21.10;99.90;;;20.23;90.49;99073.84;10362339;28;96466;-81
2023/08/03 06:03:20;;;;;;;8.50;2.72;;;21.30;99.90;;;20.43;89.52;99075.06;10399685;28;96750;-81
2023/08/03 06:08:26;;;;;;;5.00;2.42;;;21.50;99.90;;;20.61;88.56;99079.28;10406058;28;96624;-80
2023/08/03 06:13:34;;;;;;;6.53;2.50;;;21.70;99.90;;;20.83;87.31;99079.94;10361900;28;96693;-80
